Time;durP1;ratioP1;P1;durP2;ratioP2;P2;SDS_P1;SDS_P2;PMS_P1;PMS_P2;Temp;Humidity;BMP_temperature;BMP_pressure;BME280_temperature;BME280_humidity;BME280_pressure;Samples;Min_cycle;Max_cycle;Signal;HPM_P1;HPM_P2
2022/08/30 00:03:10;;;;;;;6.37;5.77;;;18.70;77.50;;;;;;5026524;28;20057;-61
2022/08/30 00:05:36;;;;;;;6.03;5.43;;;18.60;77.20;;;;;;5025959;28;20476;-63
2022/08/30 00:08:02;;;;;;;8.13;6.18;;;18.60;77.00;;;;;;5023801;28;20037;-62
2022/08/30 00:10:29;;;;;;;7.00;6.10;;;18.70;77.00;;;;;;5025801;28;20531;-62
2022/08/30 00:12:56;;;;;;;6.18;5.50;;;18.60;77.00;;;;;;5027942;28;20045;-62
2022/08/30 00:15:22;;;;;;;7.25;5.85;;;18.60;77.00;;;;;;5032209;28;20045;-62
2022/08/30 00:17:48;;;;;;;10.80;6.18;;;18.60;77.00;;;;;;5029438;28;20159;-62
2022/08/30 00:20:20;;;;;;;6.40;5.63;;;18.50;77.00;;;;;;5026022;28;20036;-63
2022/08/30 00:22:46;;;;;;;6.72;5.93;;;18.50;77.20;;;;;;5024695;28;21138;-62
2022/08/30 00:25:13;;;;;;;6.30;5.70;;;18.50;77.00;;;;;;5027817;28;20048;-63
2022/08/30 00:27:39;;;;;;;6.47;5.88;;;18.50;77.00;;;;;;5028190;28;20556;-62
2022/08/30 00:30:06;;;;;;;6.95;6.32;;;18.50;77.10;;;;;;5022492;28;20037;-62
2022/08/30 00:32:31;;;;;;;7.45;6.75;;;18.40;77.20;;;;;;5027073;28;20087;-62
2022/08/30 00:34:57;;;;;;;7.32;6.63;;;18.40;77.20;;;;;;5029045;28;20037;-62
2022/08/30 00:37:23;;;;;;;7.20;6.60;;;18.40;77.20;;;;;;5027588;28;20456;-62
2022/08/30 00:39:49;;;;;;;7.88;6.55;;;18.30;77.20;;;;;;5022989;28;20037;-62
2022/08/30 00:42:16;;;;;;;7.75;6.90;;;18.20;77.30;;;;;;5024225;28;20446;-62
2022/08/30 00:44:42;;;;;;;8.75;6.78;;;18.20;77.50;;;;;;5025269;28;20033;-63
2022/08/30 00:47:08;;;;;;;8.60;6.97;;;18.10;77.60;;;;;;5025461;28;20174;-62
2022/08/30 00:49:36;;;;;;;7.28;6.60;;;18.10;77.90;;;;;;5025906;28;20295;-62
2022/08/30 00:52:04;;;;;;;7.88;6.97;;;18.00;78.10;;;;;;5026819;28;20026;-62
2022/08/30 00:54:35;;;;;;;7.35;6.65;;;18.00;78.40;;;;;;5028416;28;20501;-62
2022/08/30 00:57:01;;;;;;;7.60;6.93;;;18.00;78.60;;;;;;5026790;28;20068;-62
2022/08/30 00:59:27;;;;;;;7.50;6.80;;;17.90;78.60;;;;;;5021989;28;20293;-62
2022/08/30 01:01:54;;;;;;;7.20;6.50;;;17.80;78.70;;;;;;5028824;28;20092;-62
2022/08/30 01:04:22;;;;;;;7.55;6.85;;;17.80;78.90;;;;;;5025293;28;20515;-61
2022/08/30 01:06:49;;;;;;;7.85;7.05;;;17.80;79.20;;;;;;5025661;28;20579;-62
2022/08/30 01:09:15;;;;;;;7.35;6.70;;;17.80;79.10;;;;;;5028630;28;20052;-62
2022/08/30 01:11:43;;;;;;;7.85;7.05;;;17.70;79.10;;;;;;5024280;28;20040;-62
2022/08/30 01:14:10;;;;;;;8.55;7.43;;;17.70;79.20;;;;;;5030073;28;20034;-62
2022/08/30 01:16:37;;;;;;;8.48;7.57;;;17.70;79.30;;;;;;5024065;28;20033;-62
2022/08/30 01:19:05;;;;;;;8.52;7.13;;;17.70;79.40;;;;;;5025296;28;20083;-62
2022/08/30 01:21:41;;;;;;;8.60;7.70;;;17.60;79.40;;;;;;5028122;28;20140;-61
2022/08/30 01:24:08;;;;;;;8.48;7.68;;;17.60;80.00;;;;;;5028943;28;20042;-62
2022/08/30 01:26:36;;;;;;;9.95;7.88;;;17.60;79.70;;;;;;5026481;28;20036;-62
2022/08/30 01:29:08;;;;;;;10.32;7.93;;;17.60;79.90;;;;;;5028813;28;20411;-61
2022/08/30 01:31:35;;;;;;;8.43;7.55;;;17.60;80.30;;;;;;5026389;28;20043;-62
2022/08/30 01:34:04;;;;;;;9.55;7.60;;;17.50;80.00;;;;;;5027288;28;20187;-63
2022/08/30 01:36:30;;;;;;;9.13;8.18;;;17.50;80.00;;;;;;5027502;28;20041;-60
2022/08/30 01:38:56;;;;;;;8.90;8.02;;;17.50;80.10;;;;;;5028168;28;20045;-62
2022/08/30 01:41:30;;;;;;;8.40;7.60;;;17.50;80.10;;;;;;5024321;28;20033;-62
2022/08/30 01:44:00;;;;;;;8.77;7.65;;;17.40;80.30;;;;;;5028722;28;20559;-62
2022/08/30 01:46:29;;;;;;;9.05;8.15;;;17.40;80.30;;;;;;5025713;28;20055;-62
2022/08/30 01:48:56;;;;;;;8.38;7.45;;;17.40;80.40;;;;;;5026131;28;20040;-62
2022/08/30 01:51:24;;;;;;;8.75;7.78;;;17.40;80.40;;;;;;5021954;28;20032;-62
2022/08/30 01:53:50;;;;;;;12.35;7.90;;;17.40;80.50;;;;;;5026800;28;20037;-62
2022/08/30 01:56:16;;;;;;;9.77;8.20;;;17.30;80.50;;;;;;5026045;28;20034;-62
2022/08/30 01:58:43;;;;;;;9.93;8.10;;;17.30;80.70;;;;;;5028309;28;20028;-62
2022/08/30 02:01:11;;;;;;;9.95;8.20;;;17.30;81.00;;;;;;5026647;28;20040;-62
2022/08/30 02:03:39;;;;;;;8.52;7.78;;;17.20;81.80;;;;;;5030400;28;20079;-62
2022/08/30 02:06:07;;;;;;;9.48;8.48;;;17.20;81.20;;;;;;5027148;28;20033;-62
2022/08/30 02:08:34;;;;;;;11.43;7.88;;;17.20;81.30;;;;;;5026262;28;20155;-60
2022/08/30 02:11:00;;;;;;;8.63;7.72;;;17.20;81.30;;;;;;5029465;28;20041;-62
2022/08/30 02:13:26;;;;;;;8.10;7.30;;;17.20;81.20;;;;;;5031134;28;20042;-62
2022/08/30 02:15:55;;;;;;;8.38;7.45;;;17.20;81.20;;;;;;5029808;28;20107;-62
2022/08/30 02:18:23;;;;;;;9.57;7.15;;;17.20;81.20;;;;;;5032216;28;20574;-62
2022/08/30 02:20:49;;;;;;;11.57;8.38;;;17.20;81.00;;;;;;5029944;28;20141;-61
2022/08/30 02:23:16;;;;;;;11.70;8.73;;;17.20;81.00;;;;;;5024928;28;20171;-62
2022/08/30 02:25:42;;;;;;;9.50;8.07;;;17.20;81.00;;;;;;5033564;28;20037;-62
2022/08/30 02:28:09;;;;;;;10.43;8.40;;;17.20;80.90;;;;;;5029312;28;20385;-62
2022/08/30 02:30:35;;;;;;;9.27;8.32;;;17.30;80.80;;;;;;5028048;28;20456;-62
2022/08/30 02:33:01;;;;;;;9.98;8.25;;;17.20;80.50;;;;;;5027738;28;20112;-62
2022/08/30 02:35:27;;;;;;;9.43;8.48;;;17.30;80.60;;;;;;5032215;28;20553;-61
2022/08/30 02:37:53;;;;;;;10.88;9.23;;;17.20;80.40;;;;;;5030640;28;20034;-61
2022/08/30 02:40:20;;;;;;;11.77;9.02;;;17.30;80.40;;;;;;5027985;28;20037;-61
2022/08/30 02:42:47;;;;;;;11.65;9.02;;;17.20;80.30;;;;;;5028623;28;20049;-62
2022/08/30 02:45:12;;;;;;;9.77;8.50;;;17.20;80.40;;;;;;5031843;28;20120;-62
2022/08/30 02:47:38;;;;;;;8.68;7.78;;;17.20;80.50;;;;;;5029507;28;20525;-62
2022/08/30 02:50:05;;;;;;;12.98;8.15;;;17.20;80.60;;;;;;5026965;28;20583;-62
2022/08/30 02:52:31;;;;;;;8.90;7.45;;;17.10;80.60;;;;;;5027872;28;20060;-62
2022/08/30 02:54:58;;;;;;;9.65;8.32;;;17.10;80.50;;;;;;5029611;28;20124;-62
2022/08/30 02:57:24;;;;;;;9.50;8.50;;;17.10;80.50;;;;;;5030065;28;20026;-62
2022/08/30 02:59:49;;;;;;;9.05;8.15;;;17.10;80.60;;;;;;5033443;28;20045;-62
2022/08/30 03:02:16;;;;;;;8.95;8.05;;;17.00;80.50;;;;;;5030665;28;20045;-62
2022/08/30 03:04:44;;;;;;;10.35;8.50;;;17.00;80.60;;;;;;5031092;28;20026;-62
2022/08/30 03:07:11;;;;;;;9.85;8.85;;;17.00;80.60;;;;;;5029184;28;20064;-62
2022/08/30 03:09:37;;;;;;;10.23;8.30;;;17.00;80.80;;;;;;5027792;28;20487;-62
2022/08/30 03:12:05;;;;;;;9.40;7.65;;;17.00;80.80;;;;;;5025915;28;20042;-62
2022/08/30 03:14:32;;;;;;;8.93;8.02;;;16.90;80.90;;;;;;5031290;28;20051;-62
2022/08/30 03:16:57;;;;;;;8.82;7.68;;;17.00;81.00;;;;;;5029605;28;20037;-62
2022/08/30 03:19:24;;;;;;;9.73;8.27;;;17.00;80.90;;;;;;5026059;28;20424;-62
2022/08/30 03:21:50;;;;;;;8.95;8.05;;;17.00;80.90;;;;;;5027441;28;20522;-62
2022/08/30 03:24:16;;;;;;;8.88;7.93;;;17.00;80.70;;;;;;5030636;28;20150;-62
2022/08/30 03:26:42;;;;;;;9.60;8.25;;;16.90;80.60;;;;;;5027224;28;20550;-62
2022/08/30 03:29:07;;;;;;;11.00;8.30;;;16.90;80.80;;;;;;5029580;28;20033;-62
2022/08/30 03:31:33;;;;;;;9.23;8.30;;;16.90;80.90;;;;;;5029880;28;20041;-62
2022/08/30 03:33:59;;;;;;;10.45;7.95;;;16.80;80.80;;;;;;5026531;28;20037;-62
2022/08/30 03:36:24;;;;;;;10.88;7.93;;;16.80;80.80;;;;;;5029323;28;20049;-62
2022/08/30 03:38:50;;;;;;;9.40;8.18;;;16.80;80.80;;;;;;5028781;28;20494;-61
2022/08/30 03:41:16;;;;;;;9.35;8.40;;;16.80;80.80;;;;;;5029191;28;20033;-62
2022/08/30 03:43:42;;;;;;;9.40;8.20;;;16.80;80.80;;;;;;5025901;28;20039;-62
2022/08/30 03:46:10;;;;;;;9.02;8.13;;;16.70;80.90;;;;;;5031398;28;20511;-62
2022/08/30 03:48:36;;;;;;;10.73;8.85;;;16.70;81.00;;;;;;5025442;28;20072;-62
2022/08/30 03:51:01;;;;;;;10.20;8.68;;;16.70;81.20;;;;;;5029483;28;20077;-62
2022/08/30 03:53:27;;;;;;;10.15;8.68;;;16.70;81.40;;;;;;5027931;28;20576;-62
2022/08/30 03:55:53;;;;;;;10.13;8.85;;;16.60;81.40;;;;;;5029249;28;20037;-62
2022/08/30 03:58:19;;;;;;;11.20;9.13;;;16.60;81.60;;;;;;5026592;28;20044;-62
2022/08/30 04:00:45;;;;;;;9.27;8.38;;;16.60;81.80;;;;;;5027750;28;20041;-62
2022/08/30 04:03:10;;;;;;;10.95;8.38;;;16.60;82.10;;;;;;5027073;28;20037;-62
2022/08/30 04:05:36;;;;;;;13.63;8.82;;;16.60;82.10;;;;;;5026425;28;20086;-62
2022/08/30 04:08:02;;;;;;;11.52;8.88;;;16.60;82.00;;;;;;5029121;28;20040;-62
2022/08/30 04:10:28;;;;;;;10.70;8.25;;;16.60;81.90;;;;;;5029177;28;20033;-62
2022/08/30 04:12:54;;;;;;;32.05;17.23;;;16.60;81.90;;;;;;5028045;28;20029;-62
2022/08/30 04:15:19;;;;;;;54.95;27.50;;;16.60;81.70;;;;;;5028353;28;20032;-62
2022/08/30 04:17:46;;;;;;;110.82;50.45;;;16.60;81.60;;;;;;5031448;28;20129;-62
2022/08/30 04:20:12;;;;;;;60.83;29.50;;;16.70;81.60;;;;;;5029337;28;22111;-61
2022/08/30 04:22:37;;;;;;;37.22;18.70;;;16.70;81.40;;;;;;5027132;28;20516;-62
2022/08/30 04:25:05;;;;;;;27.98;15.27;;;16.70;81.30;;;;;;5029418;28;20041;-62
2022/08/30 04:27:31;;;;;;;17.73;9.70;;;16.70;81.40;;;;;;5029128;28;20420;-62
2022/08/30 04:29:58;;;;;;;12.05;8.68;;;16.70;81.40;;;;;;5027051;28;20053;-61
2022/08/30 04:32:24;;;;;;;9.82;6.45;;;16.80;81.30;;;;;;5025231;28;20048;-61
2022/08/30 04:34:54;;;;;;;8.10;6.18;;;16.80;81.20;;;;;;4994982;28;20224;-62
2022/08/30 04:37:19;;;;;;;7.10;5.80;;;16.80;80.80;;;;;;5003024;28;20075;-62
2022/08/30 04:39:45;;;;;;;6.22;5.10;;;16.80;80.60;;;;;;5008850;28;20041;-60
2022/08/30 04:42:11;;;;;;;5.72;5.10;;;16.80;80.50;;;;;;5000911;28;20425;-61
2022/08/30 04:44:36;;;;;;;5.32;4.70;;;16.70;80.50;;;;;;5009503;28;20076;-62
2022/08/30 04:47:02;;;;;;;11.20;5.30;;;16.70;80.50;;;;;;5008156;28;20046;-62
2022/08/30 04:49:28;;;;;;;6.00;5.45;;;16.70;80.50;;;;;;5009011;28;20040;-61
2022/08/30 04:51:54;;;;;;;8.25;6.10;;;16.60;80.50;;;;;;5008209;28;20034;-62
2022/08/30 04:54:20;;;;;;;6.85;6.15;;;16.60;81.50;;;;;;5007212;28;21537;-61
2022/08/30 04:56:45;;;;;;;6.82;6.20;;;16.60;81.70;;;;;;5009109;28;21681;-62
2022/08/30 04:59:12;;;;;;;7.50;6.55;;;16.50;81.00;;;;;;5009089;28;20041;-62
2022/08/30 05:01:37;;;;;;;8.60;7.57;;;16.40;81.00;;;;;;5011235;28;20034;-62
2022/08/30 05:04:03;;;;;;;12.73;8.50;;;16.40;81.20;;;;;;5010569;28;20406;-62
2022/08/30 05:06:30;;;;;;;11.10;8.68;;;16.40;81.50;;;;;;5009545;28;20120;-61
2022/08/30 05:08:59;;;;;;;9.85;8.27;;;16.40;81.70;;;;;;5010240;28;20124;-61
2022/08/30 05:11:25;;;;;;;9.27;8.32;;;16.40;81.70;;;;;;5008595;28;20071;-61
2022/08/30 05:13:51;;;;;;;12.05;8.55;;;16.40;81.80;;;;;;5010289;28;20041;-60
2022/08/30 05:16:18;;;;;;;9.85;8.68;;;16.40;81.90;;;;;;5006915;28;20060;-60
2022/08/30 05:18:45;;;;;;;10.30;9.18;;;16.40;82.00;;;;;;5009171;28;20046;-62
2022/08/30 05:21:15;;;;;;;12.48;9.38;;;16.40;82.10;;;;;;5008872;28;20050;-62
2022/08/30 05:23:42;;;;;;;11.43;8.70;;;16.40;82.20;;;;;;5008285;28;20037;-62
2022/08/30 05:26:14;;;;;;;11.98;7.95;;;16.40;82.30;;;;;;5010911;28;20692;-61
2022/08/30 05:28:40;;;;;;;11.63;8.60;;;16.40;82.40;;;;;;5008658;28;22128;-62
2022/08/30 05:31:15;;;;;;;14.48;9.02;;;16.50;82.60;;;;;;5010378;28;20069;-61
2022/08/30 05:33:41;;;;;;;12.52;8.57;;;16.50;83.40;;;;;;5012136;28;20038;-62
2022/08/30 05:36:09;;;;;;;12.48;9.18;;;16.50;83.10;;;;;;5011528;28;20065;-61
2022/08/30 05:38:35;;;;;;;12.50;9.82;;;16.50;83.40;;;;;;5011022;28;20038;-62
2022/08/30 05:41:01;;;;;;;13.90;10.45;;;16.60;83.40;;;;;;5012561;28;20037;-61
2022/08/30 05:43:27;;;;;;;13.82;10.20;;;16.60;83.50;;;;;;5015145;28;20421;-60
2022/08/30 05:46:00;;;;;;;12.63;10.63;;;16.70;83.60;;;;;;5010313;28;20206;-62
2022/08/30 05:48:27;;;;;;;12.45;10.32;;;16.70;84.10;;;;;;5014331;28;20037;-61
2022/08/30 05:51:01;;;;;;;10.93;9.43;;;16.80;83.60;;;;;;5011388;28;20037;-62
2022/08/30 05:53:27;;;;;;;;;;;16.80;84.10;;;;;;5012822;28;20128;-61
2022/08/30 05:55:52;;;;;;;9.80;8.80;;;16.90;84.10;;;;;;5013539;28;19920;-62
2022/08/30 05:58:18;;;;;;;14.57;10.30;;;17.00;84.10;;;;;;5009174;28;20514;-62
2022/08/30 06:00:44;;;;;;;14.40;10.68;;;17.00;83.60;;;;;;5005283;28;20123;-62
2022/08/30 06:03:11;;;;;;;13.18;11.20;;;17.00;83.80;;;;;;5010720;28;20052;-62
2022/08/30 06:05:37;;;;;;;13.60;11.20;;;17.10;84.00;;;;;;5014054;28;20030;-62
2022/08/30 06:08:03;;;;;;;13.63;11.32;;;17.10;84.10;;;;;;5010576;28;20042;-62
2022/08/30 06:10:28;;;;;;;13.27;11.20;;;17.20;84.50;;;;;;5006812;28;20034;-62
2022/08/30 06:12:54;;;;;;;13.90;11.65;;;17.20;84.50;;;;;;5009609;28;20036;-60
2022/08/30 06:15:20;;;;;;;15.45;12.05;;;17.30;85.20;;;;;;5011697;28;20449;-61
2022/08/30 06:17:46;;;;;;;16.60;12.15;;;17.40;84.60;;;;;;5013229;28;20679;-62
2022/08/30 06:20:13;;;;;;;13.48;11.18;;;17.40;84.60;;;;;;5011567;28;20052;-62
2022/08/30 06:22:38;;;;;;;15.50;11.00;;;17.50;84.60;;;;;;5010270;28;20030;-62
2022/08/30 06:25:04;;;;;;;12.18;10.85;;;17.60;85.50;;;;;;5013010;28;20568;-60
2022/08/30 06:27:30;;;;;;;12.60;11.30;;;17.60;84.70;;;;;;5012924;28;20044;-63
2022/08/30 06:29:56;;;;;;;18.95;11.07;;;17.70;84.80;;;;;;5012164;28;20025;-60
2022/08/30 06:32:22;;;;;;;12.57;10.35;;;17.80;84.70;;;;;;5010677;28;20380;-61
2022/08/30 06:34:48;;;;;;;13.63;11.15;;;17.80;84.60;;;;;;5010885;28;20045;-62
2022/08/30 06:37:14;;;;;;;15.57;12.30;;;17.90;84.50;;;;;;5014228;28;20177;-62
2022/08/30 06:39:39;;;;;;;12.50;11.15;;;17.90;84.30;;;;;;5011786;28;20044;-62
2022/08/30 06:42:05;;;;;;;13.98;11.68;;;18.00;84.50;;;;;;5010988;28;20053;-62
2022/08/30 06:44:30;;;;;;;14.30;12.07;;;18.10;84.70;;;;;;5026319;28;20025;-60
2022/08/30 06:46:56;;;;;;;15.32;12.95;;;18.10;84.60;;;;;;5029019;28;20049;-62
2022/08/30 06:49:22;;;;;;;14.43;12.25;;;18.20;84.60;;;;;;5032726;28;20032;-62
2022/08/30 06:51:47;;;;;;;14.70;12.48;;;18.20;84.50;;;;;;5028485;28;20519;-62
2022/08/30 06:54:13;;;;;;;14.77;12.23;;;18.30;84.40;;;;;;5031869;28;20037;-62
2022/08/30 06:56:40;;;;;;;15.20;11.32;;;18.40;84.50;;;;;;5032103;28;20125;-60
2022/08/30 06:59:05;;;;;;;16.30;12.82;;;18.40;84.50;;;;;;5031621;28;20048;-61
2022/08/30 07:01:31;;;;;;;15.10;12.35;;;18.50;84.50;;;;;;5029758;28;20052;-61
2022/08/30 07:03:57;;;;;;;20.10;13.98;;;18.60;84.50;;;;;;5032449;28;20029;-62
2022/08/30 07:06:24;;;;;;;16.10;13.23;;;18.70;84.30;;;;;;5029496;28;20495;-62
2022/08/30 07:08:51;;;;;;;16.38;13.18;;;18.70;84.10;;;;;;5030612;28;20053;-62
2022/08/30 07:11:30;;;;;;;15.00;12.93;;;18.80;84.10;;;;;;5026320;28;20107;-60
2022/08/30 07:13:56;;;;;;;16.75;12.70;;;18.80;84.50;;;;;;5036183;28;20025;-62
2022/08/30 07:16:22;;;;;;;14.40;12.25;;;18.90;84.10;;;;;;5030694;28;20041;-62
2022/08/30 07:18:53;;;;;;;16.05;13.02;;;18.90;83.90;;;;;;5029468;28;20037;-63
2022/08/30 07:21:43;;;;;;;18.25;13.27;;;19.00;83.80;;;;;;5030694;28;20149;-60
2022/08/30 07:24:11;;;;;;;14.65;12.07;;;19.10;83.80;;;;;;5028921;28;20080;-62
2022/08/30 07:26:40;;;;;;;15.85;13.18;;;19.20;83.80;;;;;;5030998;28;20042;-62
2022/08/30 07:29:07;;;;;;;15.70;12.13;;;19.30;83.80;;;;;;5029077;28;20044;-61
2022/08/30 07:31:34;;;;;;;19.08;13.25;;;19.30;83.50;;;;;;5028916;28;20420;-62
2022/08/30 07:34:01;;;;;;;14.45;12.15;;;19.40;83.40;;;;;;5031511;28;20339;-54
2022/08/30 07:36:26;;;;;;;16.42;13.27;;;19.40;83.40;;;;;;5028174;28;20114;-62
2022/08/30 07:38:53;;;;;;;16.85;13.85;;;19.50;83.30;;;;;;5031671;28;20436;-62
2022/08/30 07:41:25;;;;;;;15.88;12.38;;;19.60;83.30;;;;;;5030649;28;20037;-62
2022/08/30 07:43:51;;;;;;;17.70;13.48;;;19.70;83.90;;;;;;5029819;28;20574;-62
2022/08/30 07:46:18;;;;;;;21.08;13.07;;;19.70;83.40;;;;;;5030943;28;20064;-63
2022/08/30 07:48:44;;;;;;;15.73;13.35;;;19.80;83.30;;;;;;5030585;28;22422;-62
2022/08/30 07:51:16;;;;;;;18.45;12.85;;;19.90;83.60;;;;;;5031386;28;20045;-62
2022/08/30 07:53:42;;;;;;;14.05;12.45;;;19.90;83.60;;;;;;5032731;28;20038;-61
2022/08/30 07:56:07;;;;;;;13.75;12.30;;;20.00;83.40;;;;;;5029456;28;20150;-62
2022/08/30 07:58:33;;;;;;;13.75;12.25;;;20.10;83.10;;;;;;5031057;28;20045;-63
2022/08/30 08:01:00;;;;;;;13.82;12.32;;;20.20;83.10;;;;;;5031049;28;20037;-62
2022/08/30 08:03:27;;;;;;;14.05;11.90;;;20.30;82.90;;;;;;5024474;28;20029;-59
2022/08/30 08:05:54;;;;;;;16.23;11.90;;;20.40;82.80;;;;;;5028131;28;20721;-62
2022/08/30 08:08:21;;;;;;;13.50;11.50;;;20.40;82.70;;;;;;5026925;28;20068;-61
2022/08/30 08:10:46;;;;;;;13.65;11.40;;;20.50;82.50;;;;;;5028580;28;20029;-61
2022/08/30 08:13:12;;;;;;;17.40;13.02;;;20.60;82.40;;;;;;5028442;28;20382;-62
2022/08/30 08:15:38;;;;;;;15.32;12.57;;;20.70;82.00;;;;;;5032152;28;20103;-61
2022/08/30 08:18:04;;;;;;;14.25;11.60;;;20.70;81.70;;;;;;5033761;28;20128;-62
2022/08/30 08:20:31;;;;;;;12.10;10.75;;;20.80;81.90;;;;;;5034042;28;20497;-62
2022/08/30 08:22:57;;;;;;;12.48;10.95;;;20.90;81.80;;;;;;5030815;28;20041;-62
2022/08/30 08:25:24;;;;;;;14.00;10.35;;;21.00;81.60;;;;;;5032095;28;20087;-62
2022/08/30 08:27:50;;;;;;;30.38;11.98;;;21.10;81.70;;;;;;5031820;28;20141;-62
2022/08/30 08:30:20;;;;;;;12.40;10.88;;;21.20;81.30;;;;;;5031715;28;20655;-62
2022/08/30 08:32:47;;;;;;;14.75;11.38;;;21.30;80.80;;;;;;5030581;28;20045;-62
2022/08/30 08:35:15;;;;;;;11.88;10.63;;;21.40;80.50;;;;;;5028977;28;20045;-62
2022/08/30 08:37:40;;;;;;;11.48;10.27;;;21.40;80.10;;;;;;5031467;28;21046;-62
2022/08/30 08:40:07;;;;;;;14.05;11.07;;;21.60;80.20;;;;;;5028525;28;20123;-63
2022/08/30 08:42:56;;;;;;;13.75;10.52;;;21.60;79.80;;;;;;5027942;28;20500;-62
2022/08/30 08:45:42;;;;;;;13.70;10.75;;;21.70;79.40;;;;;;5036005;28;20062;-63
2022/08/30 08:48:17;;;;;;;12.45;10.68;;;21.80;78.80;;;;;;5031106;28;20065;-61
2022/08/30 08:53:33;;;;;;;13.70;11.27;;;21.90;79.10;;;;;;5031513;28;20025;-62
2022/08/30 08:53:35;;;;;;;11.80;10.32;;;22.00;79.20;;;;;;5031471;28;20120;-62
2022/08/30 08:56:11;;;;;;;12.70;10.32;;;22.10;78.20;;;;;;5031222;28;20505;-62
2022/08/30 08:58:43;;;;;;;12.10;10.60;;;22.20;77.90;;;;;;5030593;28;20416;-63
2022/08/30 09:01:11;;;;;;;13.80;9.90;;;22.20;77.90;;;;;;5029011;28;20574;-63
2022/08/30 09:03:38;;;;;;;12.55;9.55;;;22.40;78.00;;;;;;5031178;28;20033;-62
2022/08/30 09:06:27;;;;;;;12.05;10.60;;;22.50;77.90;;;;;;5034316;28;20064;-63
2022/08/30 09:08:54;;;;;;;11.48;9.43;;;22.50;76.90;;;;;;5018041;28;20037;-62
2022/08/30 09:11:26;;;;;;;12.85;8.60;;;22.70;77.00;;;;;;5015129;28;20196;-63
2022/08/30 09:13:53;;;;;;;10.32;8.32;;;22.80;77.10;;;;;;5011152;28;20049;-62
2022/08/30 09:16:43;;;;;;;8.85;7.95;;;22.80;76.70;;;;;;5013495;28;20041;-62
2022/08/30 09:19:09;;;;;;;10.38;7.75;;;22.90;75.40;;;;;;5016394;28;20045;-62
2022/08/30 09:21:35;;;;;;;8.43;7.45;;;23.00;76.30;;;;;;5014578;28;20394;-64
2022/08/30 09:24:04;;;;;;;9.63;6.82;;;23.10;76.10;;;;;;5014413;28;20042;-63
2022/08/30 09:26:36;;;;;;;7.45;6.72;;;23.20;75.50;;;;;;5016132;28;20044;-62
2022/08/30 09:29:03;;;;;;;6.93;6.28;;;23.30;74.20;;;;;;5010808;28;20060;-63
2022/08/30 09:31:53;;;;;;;7.28;6.05;;;23.40;74.40;;;;;;5016762;28;20076;-62
2022/08/30 09:34:21;;;;;;;7.55;5.57;;;23.60;73.30;;;;;;5015539;28;20591;-62
2022/08/30 09:36:50;;;;;;;6.68;5.85;;;23.60;73.70;;;;;;5014686;28;20046;-63
2022/08/30 09:39:36;;;;;;;5.57;5.07;;;23.80;73.30;;;;;;5013505;28;20042;-62
2022/08/30 09:42:19;;;;;;;6.68;5.50;;;23.80;73.00;;;;;;5015517;28;20038;-62
2022/08/30 09:44:45;;;;;;;7.22;5.28;;;24.00;70.30;;;;;;5013286;28;20034;-62
2022/08/30 09:47:30;;;;;;;5.43;4.80;;;24.10;70.70;;;;;;5014569;28;20033;-62
2022/08/30 09:50:06;;;;;;;6.05;4.57;;;24.20;70.20;;;;;;5015538;28;20441;-62
2022/08/30 09:52:55;;;;;;;7.30;4.88;;;24.30;69.60;;;;;;5012804;28;20463;-61
2022/08/30 09:55:20;;;;;;;5.70;4.97;;;24.40;70.30;;;;;;5016117;28;20533;-62
2022/08/30 09:58:10;;;;;;;6.57;4.78;;;24.50;69.80;;;;;;5013510;28;20091;-62
2022/08/30 10:00:55;;;;;;;4.72;4.32;;;24.70;68.10;;;;;;5012760;28;20120;-63
2022/08/30 10:03:50;;;;;;;4.97;4.50;;;24.80;66.80;;;;;;5015703;28;20579;-62
2022/08/30 10:06:38;;;;;;;4.82;4.30;;;24.90;66.80;;;;;;5015568;28;20079;-63
2022/08/30 10:09:12;;;;;;;4.43;3.85;;;25.00;66.40;;;;;;5015878;28;20460;-64
2022/08/30 10:11:58;;;;;;;4.55;4.15;;;25.10;65.40;;;;;;5015051;28;20560;-63
2022/08/30 10:14:45;;;;;;;5.63;4.20;;;25.20;64.70;;;;;;5012331;28;20441;-63
2022/08/30 10:17:29;;;;;;;4.15;3.75;;;25.30;63.90;;;;;;5006328;28;20049;-64
2022/08/30 10:20:08;;;;;;;3.47;3.25;;;25.40;64.30;;;;;;5010853;28;20052;-63
2022/08/30 10:22:40;;;;;;;4.18;3.88;;;25.50;64.10;;;;;;5008495;28;20049;-63
2022/08/30 10:25:18;;;;;;;3.88;3.50;;;25.60;63.90;;;;;;5013451;28;20575;-63
2022/08/30 10:28:07;;;;;;;4.63;4.22;;;25.70;63.20;;;;;;5008542;28;20127;-62
2022/08/30 10:30:37;;;;;;;4.53;4.15;;;25.90;63.10;;;;;;5011265;28;20036;-63
2022/08/30 10:33:09;;;;;;;5.88;4.40;;;25.90;63.60;;;;;;5008845;28;20045;-63
2022/08/30 10:35:54;;;;;;;4.05;3.50;;;26.10;62.70;;;;;;5011949;28;20033;-63
2022/08/30 10:38:33;;;;;;;4.13;3.72;;;26.10;62.10;;;;;;5013192;28;20065;-62
2022/08/30 10:41:26;;;;;;;4.18;3.78;;;26.30;61.90;;;;;;5014009;28;20504;-63
2022/08/30 10:44:23;;;;;;;3.85;3.55;;;26.30;61.20;;;;;;5014043;28;20489;-63
2022/08/30 10:47:16;;;;;;;4.82;3.88;;;26.30;61.10;;;;;;5012414;28;20401;-62
2022/08/30 10:49:48;;;;;;;4.00;3.20;;;26.40;60.40;;;;;;5011905;28;20037;-63
2022/08/30 10:52:40;;;;;;;3.63;3.30;;;26.50;60.80;;;;;;5007843;28;20033;-63
2022/08/30 10:55:10;;;;;;;3.45;3.15;;;26.60;59.60;;;;;;5013588;28;20576;-63
2022/08/30 10:57:37;;;;;;;3.95;3.30;;;26.60;59.90;;;;;;5015017;28;20040;-63
2022/08/30 11:00:06;;;;;;;3.25;2.92;;;26.60;58.90;;;;;;5013854;28;20042;-63
2022/08/30 11:02:50;;;;;;;3.60;3.05;;;26.70;58.20;;;;;;5011642;28;20580;-63
2022/08/30 11:05:28;;;;;;;3.38;3.17;;;26.80;57.40;;;;;;5010763;28;20107;-63
2022/08/30 11:08:26;;;;;;;3.88;3.40;;;26.80;58.10;;;;;;5009471;28;20489;-63
2022/08/30 11:10:55;;;;;;;3.45;3.20;;;26.90;57.50;;;;;;5013789;28;21048;-64
2022/08/30 11:13:25;;;;;;;3.45;3.15;;;26.90;58.40;;;;;;5010640;28;20038;-63
2022/08/30 11:16:06;;;;;;;4.28;2.78;;;27.00;58.10;;;;;;5015017;28;20073;-63
2022/08/30 11:18:41;;;;;;;3.55;3.25;;;27.00;57.00;;;;;;5011671;28;20509;-63
2022/08/30 11:21:25;;;;;;;3.38;3.17;;;27.10;57.10;;;;;;5014672;28;20041;-63
2022/08/30 11:24:21;;;;;;;2.92;2.72;;;27.20;57.00;;;;;;5010910;28;20392;-62
2022/08/30 11:26:53;;;;;;;3.30;3.00;;;27.30;55.80;;;;;;5011302;28;20604;-62
2022/08/30 11:29:39;;;;;;;3.10;2.90;;;27.30;56.00;;;;;;5012249;28;20033;-64
2022/08/30 11:32:16;;;;;;;3.70;2.72;;;27.40;54.90;;;;;;5010272;28;20072;-63
2022/08/30 11:34:44;;;;;;;3.20;3.00;;;27.40;55.10;;;;;;5006953;28;20041;-63
2022/08/30 11:37:29;;;;;;;3.05;2.85;;;27.40;54.40;;;;;;5008804;28;20282;-63
2022/08/30 11:39:59;;;;;;;3.15;2.72;;;27.40;54.70;;;;;;5010978;28;20107;-64
2022/08/30 11:42:30;;;;;;;3.22;2.95;;;27.50;54.90;;;;;;5010114;28;20100;-63
2022/08/30 11:45:24;;;;;;;3.53;2.72;;;27.50;55.00;;;;;;5011408;28;20040;-63
2022/08/30 11:47:57;;;;;;;2.92;2.70;;;27.60;54.60;;;;;;5008863;28;20032;-63
2022/08/30 11:50:31;;;;;;;2.75;2.53;;;27.70;55.20;;;;;;5012163;28;20080;-63
2022/08/30 11:53:20;;;;;;;6.18;3.20;;;27.70;54.10;;;;;;5009154;28;20028;-63
2022/08/30 11:56:03;;;;;;;3.35;3.05;;;27.80;54.30;;;;;;5009221;28;20044;-63
2022/08/30 11:58:31;;;;;;;3.25;2.95;;;27.80;53.90;;;;;;5008364;28;20034;-63
2022/08/30 12:01:15;;;;;;;3.42;3.13;;;27.80;54.30;;;;;;5009786;28;20037;-64
2022/08/30 12:03:41;;;;;;;3.20;3.00;;;27.80;53.50;;;;;;5006885;28;20048;-63
2022/08/30 12:06:09;;;;;;;3.28;3.08;;;27.80;54.20;;;;;;5009215;28;20037;-64
2022/08/30 12:08:50;;;;;;;3.40;3.10;;;27.80;53.90;;;;;;5008327;28;20061;-63
2022/08/30 12:11:16;;;;;;;5.18;3.10;;;27.90;53.60;;;;;;5006106;28;20054;-63
2022/08/30 12:13:41;;;;;;;3.90;3.15;;;27.90;54.40;;;;;;5009716;28;20042;-63
2022/08/30 12:16:14;;;;;;;3.63;3.10;;;27.90;54.10;;;;;;5006856;28;20053;-63
2022/08/30 12:18:47;;;;;;;5.25;2.72;;;28.00;53.50;;;;;;5004198;28;20038;-63
2022/08/30 12:21:27;;;;;;;3.13;2.83;;;28.00;53.30;;;;;;5010610;28;21009;-64
2022/08/30 12:24:12;;;;;;;2.90;2.63;;;28.10;52.70;;;;;;5008122;28;20513;-64
2022/08/30 12:26:43;;;;;;;3.50;2.90;;;28.10;52.90;;;;;;5005599;28;20116;-63
2022/08/30 12:29:14;;;;;;;2.80;2.60;;;28.10;52.70;;;;;;5008299;28;20034;-64
2022/08/30 12:31:59;;;;;;;3.97;2.75;;;28.10;52.30;;;;;;5007424;28;20033;-63
2022/08/30 12:34:30;;;;;;;3.22;2.92;;;28.20;52.40;;;;;;5007472;28;20046;-63
2022/08/30 12:37:01;;;;;;;3.30;3.00;;;28.30;52.40;;;;;;5007885;28;20406;-62
2022/08/30 12:39:31;;;;;;;3.30;2.70;;;28.20;52.30;;;;;;5007001;28;20403;-64
2022/08/30 12:42:12;;;;;;;3.28;2.97;;;28.30;52.50;;;;;;5003696;28;20426;-64
2022/08/30 12:44:39;;;;;;;2.90;2.70;;;28.30;51.50;;;;;;5009026;28;20033;-64
2022/08/30 12:47:06;;;;;;;3.03;2.65;;;28.30;52.30;;;;;;5008420;28;20034;-64
2022/08/30 12:49:36;;;;;;;2.80;2.60;;;28.30;51.90;;;;;;5007802;28;20164;-63
2022/08/30 12:52:24;;;;;;;3.75;3.00;;;28.40;51.10;;;;;;5011435;28;20073;-64
2022/08/30 12:54:52;;;;;;;3.10;2.80;;;28.40;50.30;;;;;;5009477;28;20044;-65
2022/08/30 12:57:38;;;;;;;3.25;2.80;;;28.40;51.10;;;;;;5010416;28;20040;-64